HOQ weather

Hof-Plauen Airport
Hof, Bavaria, Germany

Public forecast

Using degrees Celsius for public forecast. Weather courtesy of forecast.io.

Current aviation weather report (METAR) for Hof-Plauen Airport

Report is more than 6 hours old.

Retrieved 2020/07/03 17:50 UTC (8 hours ago):

EDQM 031750Z 25008KT CAVOK 19/09 Q1019

Closest aviation forecast (TAF) to Hof-Plauen Airport

Forecast is more than 6 hours old.

Closest forecast is Grafenwohr Army Air Field, 35.6 nm (65.9 km) S. Retrieved 2020/07/03 18:29 UTC (7 hours ago):

TAF ETIC 031800Z 0318/0424 28009KT 9999 SCT060 QNH3010INS BECMG 0409/0410 25012G18KT 9999 SCT045 QNH3011INS BECMG 0418/0419 25009KT 9999 BKN040 QNH3009INS TX23/0412Z TN11/0403Z